Time;durP1;ratioP1;P1;durP2;ratioP2;P2;SDS_P1;SDS_P2;PMS_P1;PMS_P2;Temp;Humidity;BMP_temperature;BMP_pressure;BME280_temperature;BME280_humidity;BME280_pressure;Samples;Min_cycle;Max_cycle;Signal;HPM_P1;HPM_P2
2021/12/31 00:01:49;;;;;;;11.03;4.37;;;10.50;99.90;;;;;;20645308;28;20847;-75
2021/12/31 00:11:49;;;;;;;5.63;3.53;;;10.40;99.90;;;;;;20634249;28;20034;-76
2021/12/31 00:21:51;;;;;;;6.37;3.87;;;10.50;99.90;;;;;;20606767;28;20061;-76
2021/12/31 00:31:52;;;;;;;10.88;4.32;;;10.40;99.90;;;;;;20590014;28;20038;-76
2021/12/31 00:41:53;;;;;;;7.20;4.63;;;10.40;99.90;;;;;;20634959;28;20452;-76
2021/12/31 00:51:53;;;;;;;14.60;5.33;;;10.20;99.90;;;;;;20625198;28;20519;-76
2021/12/31 01:01:54;;;;;;;13.13;5.20;;;10.30;99.90;;;;;;20616125;28;20034;-76
2021/12/31 01:11:57;;;;;;;11.90;4.97;;;10.40;99.90;;;;;;20664525;28;20030;-76
2021/12/31 01:21:57;;;;;;;11.25;5.70;;;10.50;99.90;;;;;;20644240;28;20588;-76
2021/12/31 01:31:58;;;;;;;10.07;3.90;;;10.30;99.90;;;;;;20625074;28;20026;-76
2021/12/31 01:42:00;;;;;;;9.13;4.47;;;10.20;99.90;;;;;;20633016;28;20026;-76
2021/12/31 01:52:02;;;;;;;7.80;3.78;;;10.20;99.90;;;;;;20632221;28;20034;-76
2021/12/31 02:02:06;;;;;;;4.55;2.35;;;10.20;99.90;;;;;;20672555;28;20085;-75
2021/12/31 02:12:08;;;;;;;2.95;1.90;;;10.20;99.90;;;;;;20674059;28;20057;-76
2021/12/31 02:22:09;;;;;;;10.90;4.40;;;10.20;99.90;;;;;;20672934;28;20116;-76
2021/12/31 02:32:10;;;;;;;10.00;5.63;;;10.40;99.90;;;;;;20671155;28;20076;-75
2021/12/31 02:42:11;;;;;;;13.40;6.03;;;10.40;99.90;;;;;;20670098;28;20045;-75
2021/12/31 02:52:14;;;;;;;15.07;5.47;;;10.50;99.90;;;;;;20670743;28;20503;-76
2021/12/31 03:02:23;;;;;;;9.98;5.38;;;10.50;99.90;;;;;;20670103;28;20026;-76
2021/12/31 03:12:24;;;;;;;8.55;4.65;;;10.50;99.90;;;;;;20667872;28;20041;-76
2021/12/31 03:22:25;;;;;;;6.00;3.67;;;10.50;99.90;;;;;;20668505;28;20033;-76
2021/12/31 03:32:26;;;;;;;10.70;6.10;;;10.40;99.90;;;;;;20667645;28;20545;-76
2021/12/31 03:42:27;;;;;;;14.50;6.07;;;10.50;99.90;;;;;;20666771;28;20081;-76
2021/12/31 03:52:28;;;;;;;13.73;7.03;;;10.50;99.90;;;;;;20665834;28;20030;-76
2021/12/31 04:02:29;;;;;;;19.17;10.57;;;10.50;99.90;;;;;;20665031;28;20156;-76
2021/12/31 04:12:29;;;;;;;17.40;9.23;;;10.50;99.90;;;;;;20664482;28;20042;-76
2021/12/31 04:22:31;;;;;;;27.80;10.93;;;10.50;99.90;;;;;;20663927;28;20101;-76
2021/12/31 04:32:32;;;;;;;21.95;9.57;;;10.40;99.90;;;;;;20645744;28;20038;-76
2021/12/31 04:42:33;;;;;;;17.57;9.40;;;10.40;99.90;;;;;;20662833;28;20404;-76
2021/12/31 04:52:34;;;;;;;19.00;10.87;;;10.40;99.90;;;;;;20662313;28;20081;-76
2021/12/31 05:02:35;;;;;;;22.13;11.60;;;10.30;99.90;;;;;;20644521;28;20061;-76
2021/12/31 05:12:37;;;;;;;21.33;12.77;;;10.40;99.90;;;;;;20677626;28;20030;-76
2021/12/31 05:22:38;;;;;;;17.17;10.52;;;10.30;99.90;;;;;;20677435;28;20038;-75
2021/12/31 05:32:39;;;;;;;19.27;10.40;;;10.40;99.90;;;;;;20676748;28;20030;-76
2021/12/31 05:42:40;;;;;;;16.00;9.47;;;10.40;99.90;;;;;;20676108;28;20448;-76
2021/12/31 05:52:41;;;;;;;18.70;9.30;;;10.30;99.90;;;;;;20675209;28;20065;-76
2021/12/31 06:02:42;;;;;;;17.37;9.37;;;10.40;99.90;;;;;;20673127;28;20109;-76
2021/12/31 06:12:43;;;;;;;20.70;10.40;;;10.30;99.90;;;;;;20673789;28;20117;-76
2021/12/31 06:22:44;;;;;;;;;;;10.20;99.90;;;;;;20673383;28;20107;-76
2021/12/31 06:32:45;;;;;;;19.47;10.83;;;10.20;99.90;;;;;;20672451;28;19945;-75
2021/12/31 06:42:46;;;;;;;13.97;9.20;;;10.20;99.90;;;;;;20653884;28;20278;-76
2021/12/31 06:52:46;;;;;;;15.23;8.73;;;10.20;99.90;;;;;;20669387;28;20037;-76
2021/12/31 07:02:47;;;;;;;14.47;9.67;;;10.20;99.90;;;;;;20652546;28;20117;-76
2021/12/31 07:12:48;;;;;;;13.03;8.57;;;10.10;99.90;;;;;;20669238;28;20477;-77
2021/12/31 07:22:49;;;;;;;14.67;9.07;;;10.10;99.90;;;;;;20668291;28;20065;-77
2021/12/31 07:32:50;;;;;;;14.30;8.03;;;10.10;99.90;;;;;;20667070;28;20429;-77
2021/12/31 07:42:51;;;;;;;12.63;8.07;;;10.00;99.90;;;;;;20649534;28;20300;-77
2021/12/31 07:52:52;;;;;;;10.55;6.55;;;10.10;99.90;;;;;;20665887;28;20068;-77
2021/12/31 08:02:55;;;;;;;10.10;6.20;;;10.80;99.90;;;;;;20629966;28;20497;-77
2021/12/31 08:12:56;;;;;;;8.85;5.15;;;11.40;99.90;;;;;;20664302;28;20034;-77
2021/12/31 08:23:07;;;;;;;8.23;5.40;;;10.90;99.90;;;;;;20664150;28;20058;-76
2021/12/31 08:33:08;;;;;;;8.57;5.30;;;10.50;99.90;;;;;;20663518;28;20497;-76
2021/12/31 08:43:09;;;;;;;12.00;4.30;;;10.40;99.90;;;;;;20660889;28;20062;-76
2021/12/31 08:53:10;;;;;;;8.73;5.07;;;10.40;99.90;;;;;;20662322;28;20034;-75
2021/12/31 09:03:12;;;;;;;17.23;11.37;;;10.40;99.90;;;;;;20660262;28;20070;-75
2021/12/31 09:13:14;;;;;;;9.43;5.90;;;10.60;99.90;;;;;;20661379;28;20049;-76
2021/12/31 09:23:16;;;;;;;11.23;5.77;;;10.50;99.90;;;;;;20578615;28;20035;-75
2021/12/31 09:33:16;;;;;;;17.42;7.13;;;10.50;99.90;;;;;;20563481;28;20104;-77
2021/12/31 09:43:19;;;;;;;9.07;6.03;;;10.60;99.90;;;;;;20579754;28;20062;-76
2021/12/31 09:53:21;;;;;;;10.95;6.55;;;10.70;99.90;;;;;;20587114;28;20689;-76
2021/12/31 10:03:28;;;;;;;11.00;6.22;;;10.50;99.90;;;;;;20598320;28;20042;-78
2021/12/31 10:13:29;;;;;;;7.50;4.88;;;11.20;99.90;;;;;;20586621;28;20042;-76
2021/12/31 10:23:31;;;;;;;10.37;5.30;;;13.10;99.90;;;;;;20614690;28;20390;-77
2021/12/31 10:33:41;;;;;;;8.20;5.32;;;12.60;99.90;;;;;;20636277;28;20034;-76
2021/12/31 10:43:41;;;;;;;9.32;4.85;;;12.20;99.90;;;;;;20610924;28;20041;-76
2021/12/31 10:53:50;;;;;;;6.70;4.60;;;12.00;99.90;;;;;;20630635;28;20054;-76
2021/12/31 11:03:52;;;;;;;7.07;4.10;;;11.80;99.90;;;;;;20609738;28;20038;-76
2021/12/31 11:13:54;;;;;;;6.18;3.65;;;12.10;99.90;;;;;;20607643;28;20090;-76
2021/12/31 11:23:55;;;;;;;;;;;13.40;99.90;;;;;;20632993;28;20035;-76
2021/12/31 11:33:56;;;;;;;8.10;4.27;;;14.10;99.90;;;;;;20671198;28;19924;-76
2021/12/31 11:44:15;;;;;;;14.17;3.90;;;13.40;99.90;;;;;;20700832;28;20033;-76
2021/12/31 11:54:17;;;;;;;4.30;3.17;;;13.70;99.90;;;;;;20629184;28;20417;-76
2021/12/31 12:04:28;;;;;;;5.40;2.97;;;14.30;99.90;;;;;;20622512;28;20031;-76
2021/12/31 12:14:56;;;;;;;6.68;3.78;;;14.20;99.90;;;;;;20564917;28;20030;-76
2021/12/31 12:25:03;;;;;;;11.32;7.07;;;13.50;99.90;;;;;;20589349;28;20030;-75
2021/12/31 12:35:15;;;;;;;8.30;5.60;;;12.80;99.90;;;;;;20582303;28;20034;-75
2021/12/31 12:45:16;;;;;;;7.00;4.60;;;12.30;99.90;;;;;;20591324;28;20039;-75
2021/12/31 12:55:18;;;;;;;4.43;3.50;;;12.90;99.90;;;;;;20542381;28;20040;-75
2021/12/31 13:05:18;;;;;;;4.40;2.93;;;14.30;99.90;;;;;;20623843;28;20038;-76
2021/12/31 13:15:20;;;;;;;4.60;2.70;;;15.80;99.90;;;;;;20641696;28;20049;-76
2021/12/31 13:25:36;;;;;;;5.05;2.72;;;17.10;99.90;;;;;;20665496;28;20057;-75
2021/12/31 13:35:37;;;;;;;4.05;2.30;;;16.70;99.90;;;;;;20657432;28;20052;-75
2021/12/31 13:45:45;;;;;;;5.70;2.20;;;16.80;99.90;;;;;;20638816;28;20034;-75
2021/12/31 13:55:49;;;;;;;5.05;2.67;;;16.70;99.90;;;;;;20655006;28;20049;-75
2021/12/31 14:05:59;;;;;;;5.00;2.10;;;17.20;99.90;;;;;;20654737;28;20038;-75
2021/12/31 14:16:00;;;;;;;3.13;2.28;;;17.60;99.90;;;;;;20637095;28;20093;-76
2021/12/31 14:26:01;;;;;;;4.97;2.27;;;17.80;99.90;;;;;;20652936;28;20477;-75
2021/12/31 14:36:04;;;;;;;2.90;2.17;;;17.30;99.90;;;;;;20651662;28;20690;-75
2021/12/31 14:46:05;;;;;;;2.72;1.90;;;17.20;99.90;;;;;;20650795;28;20038;-75
2021/12/31 14:56:06;;;;;;;7.90;2.60;;;17.10;99.90;;;;;;20686681;28;20448;-75
2021/12/31 15:06:07;;;;;;;9.30;2.60;;;16.70;99.90;;;;;;20691886;28;20448;-76
2021/12/31 15:16:08;;;;;;;4.80;2.27;;;16.30;99.90;;;;;;20730178;28;20030;-75
2021/12/31 15:26:09;;;;;;;4.37;2.53;;;15.70;99.90;;;;;;20667535;28;20026;-75
2021/12/31 15:36:12;;;;;;;3.90;2.60;;;14.20;99.90;;;;;;20630406;28;20030;-75
2021/12/31 15:46:13;;;;;;;6.88;3.90;;;11.60;99.90;;;;;;20647592;28;20122;-75
2021/12/31 15:56:14;;;;;;;6.93;3.63;;;11.50;99.90;;;;;;20646165;28;20042;-75
2021/12/31 16:06:14;;;;;;;8.47;3.90;;;11.00;99.90;;;;;;20645663;28;20185;-75
2021/12/31 16:16:15;;;;;;;7.67;4.67;;;10.90;99.90;;;;;;20645459;28;20512;-74
2021/12/31 16:26:16;;;;;;;6.57;3.93;;;10.40;99.90;;;;;;20644103;28;20048;-75
2021/12/31 16:36:17;;;;;;;7.27;4.20;;;9.70;99.90;;;;;;20645355;28;20022;-75
2021/12/31 16:46:18;;;;;;;8.00;4.97;;;9.40;99.90;;;;;;20685626;28;20030;-75
2021/12/31 16:56:19;;;;;;;6.60;4.47;;;8.80;99.90;;;;;;20682946;28;20042;-75
2021/12/31 17:06:20;;;;;;;6.63;4.17;;;8.50;99.90;;;;;;20642295;28;20034;-75
2021/12/31 17:16:21;;;;;;;7.40;4.40;;;8.70;99.90;;;;;;20641409;28;20041;-76
2021/12/31 17:26:21;;;;;;;9.07;4.70;;;8.80;99.90;;;;;;20641244;28;20034;-75
2021/12/31 17:36:22;;;;;;;9.23;5.30;;;8.10;99.90;;;;;;20640952;28;20145;-76
2021/12/31 17:46:23;;;;;;;7.87;4.60;;;7.60;99.90;;;;;;20640691;28;20038;-76
2021/12/31 17:56:24;;;;;;;7.80;4.70;;;7.60;99.90;;;;;;20605193;28;20170;-75
2021/12/31 18:06:25;;;;;;;6.37;4.07;;;7.60;99.90;;;;;;20565073;28;20039;-75
2021/12/31 18:16:26;;;;;;;12.83;4.63;;;7.70;99.90;;;;;;20600038;28;20039;-75
2021/12/31 18:26:27;;;;;;;6.70;4.03;;;8.10;99.90;;;;;;20653833;28;20400;-75
2021/12/31 18:36:27;;;;;;;17.47;10.77;;;8.50;99.90;;;;;;20652739;28;20677;-76
2021/12/31 18:46:30;;;;;;;12.10;6.73;;;8.60;99.90;;;;;;20634164;28;20494;-76
2021/12/31 18:56:31;;;;;;;18.70;12.25;;;9.10;99.90;;;;;;20651072;28;20093;-76
2021/12/31 19:06:33;;;;;;;18.10;10.17;;;9.10;99.90;;;;;;20609910;28;20900;-75
2021/12/31 19:16:34;;;;;;;;;;;9.20;99.90;;;;;;20605459;28;20031;-76
2021/12/31 19:26:34;;;;;;;1999.90;987.17;;;9.20;99.90;;;;;;20608663;28;19920;-75
2021/12/31 19:36:35;;;;;;;90.87;66.80;;;9.10;99.90;;;;;;20648249;28;20038;-75
2021/12/31 19:46:36;;;;;;;167.37;100.87;;;8.60;99.90;;;;;;20659216;28;20085;-75
2021/12/31 19:56:37;;;;;;;134.73;85.17;;;8.30;99.90;;;;;;20647929;28;20034;-75
2021/12/31 20:06:38;;;;;;;286.87;209.33;;;8.30;99.90;;;;;;20664131;28;20378;-75
2021/12/31 20:16:39;;;;;;;165.20;122.13;;;8.30;99.90;;;;;;20664655;28;20121;-75
2021/12/31 20:26:39;;;;;;;54.73;29.80;;;8.10;99.90;;;;;;20628985;28;20105;-75
2021/12/31 20:36:40;;;;;;;65.63;36.03;;;7.40;99.90;;;;;;20588709;28;20026;-75
2021/12/31 20:46:41;;;;;;;51.97;27.73;;;7.00;99.90;;;;;;20582648;28;20037;-75
2021/12/31 20:56:42;;;;;;;21.93;13.40;;;7.10;99.90;;;;;;20581794;28;20078;-75
2021/12/31 21:06:43;;;;;;;30.27;18.67;;;6.70;99.90;;;;;;20581300;28;20065;-75
2021/12/31 21:16:44;;;;;;;42.50;26.13;;;6.50;99.90;;;;;;20581118;28;20557;-76
2021/12/31 21:26:44;;;;;;;526.53;367.53;;;6.50;99.90;;;;;;20580988;28;20720;-76
2021/12/31 21:36:45;;;;;;;88.67;56.67;;;6.90;99.90;;;;;;20580649;28;20046;-76
2021/12/31 21:46:46;;;;;;;352.30;208.17;;;6.50;99.90;;;;;;20582889;28;20106;-76
2021/12/31 21:56:47;;;;;;;75.27;45.47;;;6.80;99.90;;;;;;20594629;28;20026;-76
2021/12/31 22:06:48;;;;;;;581.33;407.97;;;6.60;99.90;;;;;;20594039;28;20031;-76
2021/12/31 22:16:48;;;;;;;55.80;33.40;;;6.60;99.90;;;;;;20593299;28;20031;-76
2021/12/31 22:26:49;;;;;;;57.60;30.03;;;6.40;99.90;;;;;;20592910;28;20034;-76
2021/12/31 22:36:51;;;;;;;32.65;19.83;;;6.00;99.90;;;;;;20574510;28;20445;-75
2021/12/31 22:46:52;;;;;;;48.33;20.58;;;6.30;99.90;;;;;;20591330;28;20114;-76
2021/12/31 22:56:53;;;;;;;27.88;16.65;;;6.10;99.90;;;;;;20589209;28;20031;-76
2021/12/31 23:06:54;;;;;;;31.25;15.20;;;5.80;99.90;;;;;;20587795;28;20058;-75
2021/12/31 23:16:55;;;;;;;31.27;15.03;;;6.20;99.90;;;;;;20589097;28;20114;-75
2021/12/31 23:26:58;;;;;;;33.03;15.40;;;5.20;99.90;;;;;;20589109;28;20070;-76
2021/12/31 23:36:59;;;;;;;62.70;27.48;;;5.10;99.90;;;;;;20604127;28;20034;-75
2021/12/31 23:47:00;;;;;;;40.13;20.20;;;5.40;99.90;;;;;;20591434;28;20367;-75
2021/12/31 23:57:01;;;;;;;49.80;21.80;;;5.20;99.90;;;;;;20633120;28;20030;-75
